createdAt,value
2018-11-04T00:00:18.959Z,101736.59
2018-11-04T00:02:48.650Z,101739.86
2018-11-04T00:05:18.573Z,101734.55
2018-11-04T00:07:48.940Z,101749.20
2018-11-04T00:10:17.902Z,101745.36
2018-11-04T00:12:46.846Z,101748.02
2018-11-04T00:15:15.678Z,101746.69
2018-11-04T00:17:45.298Z,101754.66
2018-11-04T00:20:15.851Z,101756.63
2018-11-04T00:22:45.666Z,101745.03
2018-11-04T00:25:15.226Z,101750.53
2018-11-04T00:27:44.302Z,101745.71
2018-11-04T00:33:14.351Z,101735.88
2018-11-04T00:35:43.303Z,101741.23
2018-11-04T00:38:13.183Z,101731.11
2018-11-04T00:40:42.768Z,101734.25
2018-11-04T00:43:26.938Z,101743.77
2018-11-04T00:45:56.067Z,101740.27
2018-11-04T00:48:25.363Z,101741.11
2018-11-04T00:50:55.692Z,101744.25
2018-11-04T00:53:26.015Z,101743.89
2018-11-04T00:55:56.238Z,101743.05
2018-11-04T00:58:27.046Z,101737.56
2018-11-04T01:00:56.379Z,101742.56
2018-11-04T01:03:27.468Z,101752.69
2018-11-04T01:05:57.200Z,101746.19
2018-11-04T01:08:26.269Z,101741.50
2018-11-04T01:10:55.769Z,101744.50
2018-11-04T01:13:26.462Z,101751.50
2018-11-04T01:15:55.607Z,101749.47
2018-11-04T01:18:26.313Z,101751.05
2018-11-04T01:20:55.513Z,101747.78
2018-11-04T01:23:26.224Z,101744.42
2018-11-04T01:25:55.397Z,101746.04
2018-11-04T01:28:26.615Z,101738.13
2018-11-04T01:30:55.825Z,101740.20
2018-11-04T01:33:25.317Z,101734.96
2018-11-04T01:35:54.576Z,101735.48
2018-11-04T01:38:24.689Z,101735.20
2018-11-04T01:40:53.580Z,101741.16
2018-11-04T01:43:23.652Z,101729.42
2018-11-04T01:45:53.060Z,101735.60
2018-11-04T01:48:22.507Z,101731.69
2018-11-04T01:50:51.660Z,101730.27
2018-11-04T01:53:21.673Z,101728.36
2018-11-04T01:55:50.541Z,101729.45
2018-11-04T01:58:20.598Z,101721.30
2018-11-04T02:00:50.487Z,101713.25
2018-11-04T02:03:19.584Z,101723.50
2018-11-04T02:05:49.155Z,101717.00
2018-11-04T02:08:17.990Z,101719.55
2018-11-04T02:10:47.286Z,101716.58
2018-11-04T02:13:16.121Z,101711.30
2018-11-04T02:15:45.192Z,101713.72
2018-11-04T02:18:14.940Z,101719.63
2018-11-04T02:20:43.727Z,101714.46
2018-11-04T02:23:13.330Z,101718.80
2018-11-04T02:25:42.166Z,101709.64
2018-11-04T02:28:10.989Z,101704.50
2018-11-04T02:30:39.899Z,101708.13
2018-11-04T02:33:08.792Z,101703.08
2018-11-04T02:35:38.307Z,101700.20
2018-11-04T02:38:08.102Z,101705.75
2018-11-04T02:40:36.937Z,101701.06
2018-11-04T02:43:06.406Z,101706.16
2018-11-04T02:45:35.199Z,101702.19
2018-11-04T02:48:04.062Z,101709.66
2018-11-04T02:50:33.314Z,101708.33
2018-11-04T02:53:02.144Z,101704.67
2018-11-04T02:55:30.919Z,101698.16
2018-11-04T02:57:59.748Z,101692.86
2018-11-04T03:00:29.026Z,101694.18
2018-11-04T03:02:57.879Z,101703.20
2018-11-04T03:05:27.236Z,101703.56
2018-11-04T03:07:56.016Z,101709.09
2018-11-04T03:10:25.615Z,101706.80
2018-11-04T03:12:54.586Z,101705.24
2018-11-04T03:15:23.676Z,101697.52
2018-11-04T03:17:53.364Z,101701.50
2018-11-04T03:20:22.917Z,101698.84
2018-11-04T03:22:52.464Z,101696.88
2018-11-04T03:25:21.577Z,101699.05
2018-11-04T03:27:51.619Z,101701.02
2018-11-04T03:30:21.106Z,101701.39
2018-11-04T03:32:50.875Z,101698.52
2018-11-04T03:35:20.057Z,101699.25
2018-11-04T03:37:49.295Z,101712.78
2018-11-04T03:40:18.288Z,101707.02
2018-11-04T03:42:48.115Z,101702.46
2018-11-04T03:45:17.128Z,101711.25
2018-11-04T03:47:45.973Z,101702.10
2018-11-04T03:50:15.631Z,101701.06
2018-11-04T03:52:44.450Z,101700.70
2018-11-04T03:55:13.321Z,101697.70
2018-11-04T03:57:42.174Z,101694.20
2018-11-04T04:00:13.108Z,101693.14
2018-11-04T04:02:43.343Z,101703.50
2018-11-04T04:05:13.137Z,101706.62
2018-11-04T04:07:41.910Z,101700.42
2018-11-04T04:10:11.416Z,101700.55
2018-11-04T04:12:40.190Z,101696.34
2018-11-04T04:15:10.184Z,101693.94
2018-11-04T04:17:39.814Z,101707.06
2018-11-04T04:20:08.719Z,101696.75
2018-11-04T04:22:37.546Z,101702.30
2018-11-04T04:25:06.817Z,101703.88
2018-11-04T04:27:36.799Z,101704.12
2018-11-04T04:30:08.322Z,101703.20
2018-11-04T04:32:37.122Z,101706.34
2018-11-04T04:35:06.679Z,101700.09
2018-11-04T04:37:35.552Z,101707.70
2018-11-04T04:40:04.501Z,101708.39
2018-11-04T04:42:34.054Z,101711.99
2018-11-04T04:45:02.857Z,101715.11
2018-11-04T04:47:31.669Z,101706.89
2018-11-04T04:50:01.050Z,101701.09
2018-11-04T04:52:30.402Z,101708.03
2018-11-04T04:54:59.213Z,101706.69
2018-11-04T04:57:28.124Z,101702.70
2018-11-04T04:59:57.634Z,101705.91
2018-11-04T05:02:26.498Z,101711.80
2018-11-04T05:04:56.046Z,101706.00
2018-11-04T05:07:25.182Z,101704.03
2018-11-04T05:09:54.141Z,101700.52
2018-11-04T05:12:23.802Z,101703.64
2018-11-04T05:14:53.114Z,101710.81
2018-11-04T05:17:22.412Z,101705.67
2018-11-04T05:19:53.342Z,101704.97
2018-11-04T05:22:22.517Z,101702.31
2018-11-04T05:24:51.829Z,101709.78
2018-11-04T05:27:21.893Z,101712.91
2018-11-04T05:29:51.213Z,101706.16
2018-11-04T05:32:20.636Z,101706.72
2018-11-04T05:34:50.862Z,101708.40
2018-11-04T05:37:21.020Z,101710.20
2018-11-04T05:39:50.382Z,101713.34
2018-11-04T05:42:20.429Z,101713.27
2018-11-04T05:44:49.611Z,101714.48
2018-11-04T05:47:18.533Z,101722.81
2018-11-04T05:49:47.467Z,101721.67
2018-11-04T05:52:16.900Z,101722.52
2018-11-04T05:54:45.772Z,101721.13
2018-11-04T05:57:14.652Z,101720.77
2018-11-04T05:59:44.389Z,101721.50
2018-11-04T06:02:13.183Z,101723.91
2018-11-04T06:04:42.534Z,101720.95
2018-11-04T06:07:11.329Z,101721.55
2018-11-04T06:09:40.275Z,101731.06
2018-11-04T06:12:10.155Z,101733.96
2018-11-04T06:14:39.043Z,101736.66
2018-11-04T06:17:07.901Z,101734.61
2018-11-04T06:19:37.478Z,101734.17
2018-11-04T06:22:06.286Z,101742.72
2018-11-04T06:24:35.791Z,101748.73
2018-11-04T06:27:05.155Z,101739.38
2018-11-04T06:29:33.922Z,101744.20
2018-11-04T06:32:02.763Z,101746.27
2018-11-04T06:34:31.717Z,101749.16
2018-11-04T06:37:00.483Z,101753.00
2018-11-04T06:39:29.384Z,101750.95
2018-11-04T06:41:58.883Z,101750.11
2018-11-04T06:44:27.672Z,101745.18
2018-11-04T06:46:56.501Z,101746.29
2018-11-04T06:49:25.386Z,101748.58
2018-11-04T06:51:55.072Z,101751.22
2018-11-04T06:54:23.967Z,101753.02
2018-11-04T06:56:53.533Z,101762.73
2018-11-04T06:59:23.734Z,101763.94
2018-11-04T07:01:53.572Z,101771.64
2018-11-04T07:04:29.595Z,101779.82
2018-11-04T07:06:58.698Z,101779.45
2018-11-04T07:09:27.468Z,101779.22
2018-11-04T07:11:56.710Z,101780.42
2018-11-04T07:14:26.240Z,101785.95
2018-11-04T07:16:55.663Z,101781.87
2018-11-04T07:19:26.367Z,101785.36
2018-11-04T07:21:55.749Z,101776.94
2018-11-04T07:24:25.955Z,101775.22
2018-11-04T07:26:56.635Z,101780.28
2018-11-04T07:29:26.402Z,101775.23
2018-11-04T07:31:56.210Z,101776.64
2018-11-04T07:34:25.032Z,101776.28
2018-11-04T07:36:54.662Z,101770.75
2018-11-04T07:39:23.735Z,101767.59
2018-11-04T07:41:53.581Z,101766.98
2018-11-04T07:44:23.569Z,101766.95
2018-11-04T07:46:52.617Z,101762.48
2018-11-04T07:49:25.206Z,101764.41
2018-11-04T07:51:56.177Z,101770.98
2018-11-04T07:54:25.094Z,101764.00
2018-11-04T07:56:54.284Z,101766.48
2018-11-04T07:59:26.252Z,101755.39
2018-11-04T08:01:55.171Z,101758.86
2018-11-04T08:04:25.040Z,101767.59
2018-11-04T08:06:54.286Z,101770.30
2018-11-04T08:09:23.499Z,101772.90
2018-11-04T08:11:53.747Z,101783.11
2018-11-04T08:14:23.284Z,101786.77
2018-11-04T08:16:52.435Z,101781.80
2018-11-04T08:19:22.759Z,101781.75
2018-11-04T08:21:53.441Z,101786.19
2018-11-04T08:24:23.831Z,101781.30
2018-11-04T08:26:53.754Z,101770.21
2018-11-04T08:29:31.117Z,101786.55
2018-11-04T08:32:00.076Z,101787.81
2018-11-04T08:34:29.052Z,101789.24
2018-11-04T08:36:59.118Z,101784.88
2018-11-04T08:39:28.267Z,101783.48
2018-11-04T08:41:57.811Z,101777.55
2018-11-04T08:47:16.341Z,101778.16
2018-11-04T08:49:45.478Z,101776.36
2018-11-04T08:52:14.942Z,101772.83
2018-11-04T08:54:44.110Z,101782.93
2018-11-04T08:57:13.591Z,101778.63
2018-11-04T08:59:43.553Z,101780.94
2018-11-04T09:04:55.112Z,101770.39
2018-11-04T09:07:25.130Z,101771.88
2018-11-04T09:09:54.657Z,101767.67
2018-11-04T09:12:24.711Z,101774.61
2018-11-04T09:15:24.317Z,101778.38
2018-11-04T09:17:54.647Z,101771.17
2018-11-04T09:20:24.249Z,101771.56
2018-11-04T09:22:53.756Z,101770.53
2018-11-04T09:25:23.463Z,101766.66
2018-11-04T09:27:53.716Z,101769.11
2018-11-04T09:30:23.393Z,101764.03
2018-11-04T09:32:54.594Z,101752.48
2018-11-04T09:35:25.119Z,101761.02
2018-11-04T09:37:54.720Z,101760.22
2018-11-04T09:40:24.611Z,101758.61
2018-11-04T09:45:43.108Z,101758.81
2018-11-04T09:48:12.085Z,101764.73
2018-11-04T09:50:42.715Z,101762.27
2018-11-04T09:53:11.746Z,101768.85
2018-11-04T09:55:41.420Z,101757.74
2018-11-04T09:58:10.642Z,101761.80
2018-11-04T10:00:40.211Z,101760.91
2018-11-04T10:03:10.138Z,101762.02
2018-11-04T10:05:40.224Z,101760.39
2018-11-04T10:08:09.371Z,101756.72
2018-11-04T10:10:39.096Z,101764.42
2018-11-04T10:13:08.092Z,101759.64
2018-11-04T10:15:38.076Z,101754.87
2018-11-04T10:18:07.685Z,101755.36
2018-11-04T10:20:37.104Z,101758.89
2018-11-04T10:23:05.986Z,101756.91
2018-11-04T10:25:34.930Z,101760.77
2018-11-04T10:28:04.451Z,101764.61
2018-11-04T10:30:33.496Z,101756.68
2018-11-04T10:33:02.389Z,101761.73
2018-11-04T10:35:32.004Z,101757.94
2018-11-04T10:38:01.060Z,101764.80
2018-11-04T10:40:29.933Z,101761.00
2018-11-04T10:42:59.423Z,101760.81
2018-11-04T10:45:28.449Z,101756.47
2018-11-04T10:47:58.097Z,101755.48
2018-11-04T10:50:28.186Z,101760.17
2018-11-04T10:52:57.142Z,101758.69
2018-11-04T10:55:26.263Z,101765.35
2018-11-04T10:57:55.554Z,101751.48
2018-11-04T11:00:30.212Z,101753.95
2018-11-04T11:02:59.031Z,101757.25
2018-11-04T11:05:32.251Z,101747.09
2018-11-04T11:08:02.293Z,101751.98
2018-11-04T11:10:31.848Z,101745.52
2018-11-04T11:13:01.457Z,101741.54
2018-11-04T11:15:30.427Z,101744.05
2018-11-04T11:17:59.898Z,101739.47
2018-11-04T11:20:36.384Z,101733.02
2018-11-04T11:23:05.828Z,101725.91
2018-11-04T11:25:34.847Z,101736.14
2018-11-04T11:28:04.565Z,101724.69
2018-11-04T11:30:34.009Z,101728.73
2018-11-04T11:33:02.845Z,101724.39
2018-11-04T11:35:31.840Z,101712.58
2018-11-04T11:38:01.250Z,101712.94
2018-11-04T11:40:30.134Z,101708.17
2018-11-04T11:42:59.368Z,101711.72
2018-11-04T11:45:28.320Z,101709.39
2018-11-04T11:47:57.404Z,101707.38
2018-11-04T11:50:27.014Z,101708.37
2018-11-04T11:52:56.031Z,101700.41
2018-11-04T11:55:24.963Z,101696.64
2018-11-04T11:57:54.260Z,101702.52
2018-11-04T12:00:24.386Z,101693.55
2018-11-04T12:02:53.998Z,101691.57
2018-11-04T12:05:24.291Z,101683.73
2018-11-04T12:07:53.994Z,101682.27
2018-11-04T12:10:24.492Z,101688.29
2018-11-04T12:12:53.624Z,101688.75
2018-11-04T12:15:22.824Z,101691.27
2018-11-04T12:17:51.907Z,101688.29
2018-11-04T12:20:20.735Z,101679.95
2018-11-04T12:22:49.818Z,101683.27
2018-11-04T12:25:18.659Z,101677.73
2018-11-04T12:27:48.561Z,101664.59
2018-11-04T12:30:17.462Z,101654.91
2018-11-04T12:32:46.577Z,101656.42
2018-11-04T12:35:15.586Z,101656.45
2018-11-04T12:37:44.979Z,101662.78
2018-11-04T12:40:14.311Z,101653.45
2018-11-04T12:42:43.724Z,101657.61
2018-11-04T12:45:13.359Z,101653.58
2018-11-04T12:47:42.850Z,101653.91
2018-11-04T12:50:13.267Z,101652.23
2018-11-04T12:52:42.138Z,101656.77
2018-11-04T12:55:11.036Z,101652.27
2018-11-04T12:57:39.922Z,101649.91
2018-11-04T13:00:13.544Z,101647.25
2018-11-04T13:02:42.931Z,101648.55
2018-11-04T13:05:12.511Z,101649.72
2018-11-04T13:07:41.356Z,101646.84
2018-11-04T13:10:13.251Z,101648.97
2018-11-04T13:12:42.070Z,101641.97
2018-11-04T13:15:12.679Z,101643.64
2018-11-04T13:17:42.732Z,101637.47
2018-11-04T13:20:11.747Z,101644.44
2018-11-04T13:22:40.815Z,101643.61
2018-11-04T13:25:10.254Z,101644.59
2018-11-04T13:27:39.604Z,101644.41
2018-11-04T13:30:10.759Z,101641.74
2018-11-04T13:32:39.748Z,101631.72
2018-11-04T13:35:08.800Z,101630.01
2018-11-04T13:37:39.007Z,101637.44
2018-11-04T13:40:09.856Z,101642.92
2018-11-04T13:42:39.545Z,101635.03
2018-11-04T13:45:09.063Z,101636.52
2018-11-04T13:47:38.257Z,101630.16
2018-11-04T13:50:10.203Z,101634.91
2018-11-04T13:52:39.235Z,101641.52
2018-11-04T13:55:13.975Z,101647.98
2018-11-04T13:57:42.933Z,101636.78
2018-11-04T14:00:16.367Z,101645.91
2018-11-04T14:02:46.983Z,101648.38
2018-11-04T14:05:16.536Z,101655.13
2018-11-04T14:07:46.112Z,101656.25
2018-11-04T14:10:16.437Z,101660.17
2018-11-04T14:12:46.931Z,101654.41
2018-11-04T14:15:16.136Z,101640.13
2018-11-04T14:17:44.984Z,101643.90
2018-11-04T14:20:14.104Z,101643.84
2018-11-04T14:22:43.092Z,101653.59
2018-11-04T14:25:12.883Z,101654.75
2018-11-04T14:27:42.622Z,101659.03
2018-11-04T14:30:13.845Z,101655.19
2018-11-04T14:32:42.949Z,101650.56
2018-11-04T14:35:13.392Z,101654.75
2018-11-04T14:37:42.901Z,101647.09
2018-11-04T14:40:14.474Z,101646.65
2018-11-04T14:42:45.208Z,101646.70
2018-11-04T14:45:14.161Z,101646.77
2018-11-04T14:47:43.987Z,101649.94
2018-11-04T14:50:16.161Z,101640.77
2018-11-04T14:52:45.100Z,101640.59
2018-11-04T14:55:14.076Z,101642.59
2018-11-04T14:58:13.504Z,101640.13
2018-11-04T15:00:42.760Z,101637.47
2018-11-04T15:03:12.317Z,101640.17
2018-11-04T15:05:42.432Z,101639.54
2018-11-04T15:08:11.297Z,101634.41
2018-11-04T15:10:41.018Z,101628.10
2018-11-04T15:13:10.304Z,101628.74
2018-11-04T15:15:39.192Z,101626.72
2018-11-04T15:18:08.119Z,101624.99
2018-11-04T15:20:36.994Z,101623.78
2018-11-04T15:23:06.307Z,101617.02
2018-11-04T15:25:35.370Z,101622.00
2018-11-04T15:28:09.338Z,101610.98
2018-11-04T15:30:38.265Z,101607.64
2018-11-04T15:33:07.325Z,101608.91
2018-11-04T15:35:36.861Z,101610.02
2018-11-04T15:38:06.028Z,101613.11
2018-11-04T15:40:34.900Z,101613.40
2018-11-04T15:43:04.540Z,101607.88
2018-11-04T15:45:33.417Z,101607.99
2018-11-04T15:48:02.386Z,101605.07
2018-11-04T15:50:31.725Z,101601.08
2018-11-04T15:53:01.146Z,101598.91
2018-11-04T15:55:30.056Z,101602.27
2018-11-04T15:57:59.027Z,101597.79
2018-11-04T16:00:28.597Z,101607.65
2018-11-04T16:03:02.575Z,101607.16
2018-11-04T16:05:32.018Z,101607.70
2018-11-04T16:08:01.012Z,101614.36
2018-11-04T16:10:30.628Z,101610.52
2018-11-04T16:12:59.820Z,101604.20
2018-11-04T16:15:28.750Z,101600.16
2018-11-04T16:19:01.742Z,101602.96
2018-11-04T16:21:30.738Z,101602.24
2018-11-04T16:23:59.741Z,101600.50
2018-11-04T16:26:28.810Z,101600.91
2018-11-04T16:28:58.748Z,101603.36
2018-11-04T16:31:27.735Z,101605.75
2018-11-04T16:33:56.655Z,101597.05
2018-11-04T16:36:26.278Z,101597.47
2018-11-04T16:38:55.461Z,101596.28
2018-11-04T16:41:25.268Z,101609.58
2018-11-04T16:43:56.286Z,101600.90
2018-11-04T16:46:25.428Z,101605.23
2018-11-04T16:48:54.921Z,101601.95
2018-11-04T16:51:25.017Z,101590.76
2018-11-04T16:53:54.588Z,101593.88
2018-11-04T16:56:24.180Z,101581.84
2018-11-04T16:58:54.085Z,101583.45
2018-11-04T17:01:24.217Z,101582.13
2018-11-04T17:03:54.686Z,101588.00
2018-11-04T17:06:24.735Z,101582.83
2018-11-04T17:11:45.157Z,101588.91
2018-11-04T17:14:14.279Z,101587.75
2018-11-04T17:16:43.307Z,101589.98
2018-11-04T17:19:12.347Z,101590.54
2018-11-04T17:21:41.311Z,101585.22
2018-11-04T17:24:10.381Z,101594.61
2018-11-04T17:26:39.312Z,101596.28
2018-11-04T17:29:09.227Z,101596.42
2018-11-04T17:31:38.549Z,101594.75
2018-11-04T17:34:07.516Z,101600.76
2018-11-04T17:36:44.201Z,101596.98
2018-11-04T17:39:13.845Z,101589.15
2018-11-04T17:41:43.647Z,101590.19
2018-11-04T17:44:12.602Z,101592.84
2018-11-04T17:46:41.917Z,101584.32
2018-11-04T17:49:10.884Z,101587.12
2018-11-04T17:51:40.346Z,101582.78
2018-11-04T17:54:09.434Z,101584.75
2018-11-04T17:56:38.930Z,101580.44
2018-11-04T17:59:08.186Z,101580.76
2018-11-04T18:01:37.945Z,101579.28
2018-11-04T18:04:07.583Z,101584.95
2018-11-04T18:06:36.653Z,101578.52
2018-11-04T18:09:07.674Z,101577.39
2018-11-04T18:11:37.251Z,101575.28
2018-11-04T18:14:06.603Z,101566.13
2018-11-04T18:16:35.534Z,101570.95
2018-11-04T18:19:04.646Z,101565.52
2018-11-04T18:21:33.471Z,101561.04
2018-11-04T18:24:02.550Z,101552.78
2018-11-04T18:26:31.990Z,101552.34
2018-11-04T18:29:01.777Z,101553.70
2018-11-04T18:31:31.697Z,101550.27
2018-11-04T18:34:00.646Z,101555.98
2018-11-04T18:36:30.336Z,101545.37
2018-11-04T18:38:59.254Z,101548.93
2018-11-04T18:41:29.091Z,101547.80
2018-11-04T18:43:58.888Z,101547.50
2018-11-04T18:46:27.897Z,101549.35
2018-11-04T18:48:56.801Z,101554.23
2018-11-04T18:51:26.506Z,101545.13
2018-11-04T18:53:56.002Z,101551.48
2018-11-04T18:56:25.116Z,101543.16
2018-11-04T18:58:54.690Z,101543.50
2018-11-04T19:01:24.689Z,101546.67
2018-11-04T19:03:54.966Z,101546.23
2018-11-04T19:06:24.975Z,101539.28
2018-11-04T19:08:54.326Z,101545.79
2018-11-04T19:11:24.294Z,101545.30
2018-11-04T19:13:54.815Z,101541.80
2018-11-04T19:19:05.787Z,101538.39
2018-11-04T19:21:34.782Z,101539.52
2018-11-04T19:24:04.053Z,101552.48
2018-11-04T19:26:33.199Z,101542.39
2018-11-04T19:29:03.019Z,101545.44
2018-11-04T19:31:31.951Z,101550.78
2018-11-04T19:34:01.125Z,101536.53
2018-11-04T19:36:30.546Z,101534.95
2018-11-04T19:38:59.547Z,101537.48
2018-11-04T19:41:28.436Z,101537.23
2018-11-04T19:43:58.214Z,101535.77
2018-11-04T19:46:27.129Z,101525.80
2018-11-04T19:48:56.748Z,101534.13
2018-11-04T19:51:26.361Z,101535.80
2018-11-04T19:53:55.612Z,101524.31
2018-11-04T19:56:24.716Z,101528.66
2018-11-04T19:58:54.698Z,101530.67
2018-11-04T20:01:24.694Z,101520.86
2018-11-04T20:03:54.832Z,101534.19
2018-11-04T20:06:23.942Z,101525.85
2018-11-04T20:08:58.311Z,101523.57
2018-11-04T20:11:27.682Z,101519.42
2018-11-04T20:14:02.049Z,101527.22
2018-11-04T20:16:31.109Z,101535.70
2018-11-04T20:19:05.133Z,101530.88
2018-11-04T20:21:34.173Z,101522.55
2018-11-04T20:24:07.129Z,101521.21
2018-11-04T20:26:36.121Z,101524.41
2018-11-04T20:29:06.353Z,101526.73
2018-11-04T20:31:40.232Z,101516.91
2018-11-04T20:34:09.238Z,101514.44
2018-11-04T20:36:38.704Z,101523.46
2018-11-04T20:39:14.136Z,101514.48
2018-11-04T20:41:44.063Z,101513.65
2018-11-04T20:44:13.100Z,101510.34
2018-11-04T20:46:42.528Z,101524.84
2018-11-04T20:49:18.053Z,101522.36
2018-11-04T20:51:48.184Z,101509.50
2018-11-04T20:54:17.064Z,101516.62
2018-11-04T20:56:51.562Z,101510.98
2018-11-04T20:59:22.297Z,101504.17
2018-11-04T21:01:51.998Z,101506.88
2018-11-04T21:04:22.302Z,101510.41
2018-11-04T21:06:53.903Z,101508.55
2018-11-04T21:09:23.725Z,101501.40
2018-11-04T21:11:54.179Z,101502.23
2018-11-04T21:14:24.608Z,101502.08
2018-11-04T21:16:55.259Z,101497.28
2018-11-04T21:19:24.936Z,101497.93
2018-11-04T21:21:55.123Z,101493.13
2018-11-04T21:24:24.569Z,101490.81
2018-11-04T21:26:54.755Z,101498.16
2018-11-04T21:29:25.129Z,101500.97
2018-11-04T21:31:55.126Z,101496.82
2018-11-04T21:34:25.207Z,101494.16
2018-11-04T21:36:55.338Z,101492.17
2018-11-04T21:39:25.515Z,101488.98
2018-11-04T21:41:55.031Z,101489.70
2018-11-04T21:44:25.003Z,101481.70
2018-11-04T21:49:56.989Z,101489.39
2018-11-04T21:52:27.188Z,101477.23
2018-11-04T21:54:56.182Z,101479.25
2018-11-04T21:57:25.337Z,101478.26
2018-11-04T21:59:55.219Z,101475.62
2018-11-04T22:02:24.643Z,101471.13
2018-11-04T22:04:55.014Z,101474.31
2018-11-04T22:07:24.315Z,101469.62
2018-11-04T22:09:53.619Z,101471.30
2018-11-04T22:12:24.180Z,101468.82
2018-11-04T22:14:54.138Z,101469.47
2018-11-04T22:17:23.745Z,101460.13
2018-11-04T22:19:53.329Z,101468.59
2018-11-04T22:22:23.629Z,101457.34
2018-11-04T22:27:42.502Z,101450.28
2018-11-04T22:30:12.485Z,101453.09
2018-11-04T22:33:12.654Z,101456.22
2018-11-04T22:35:42.077Z,101450.02
2018-11-04T22:38:11.155Z,101445.53
2018-11-04T22:40:40.048Z,101442.72
2018-11-04T22:43:09.454Z,101443.70
2018-11-04T22:45:38.729Z,101440.70
2018-11-04T22:48:10.610Z,101436.52
2018-11-04T22:50:40.244Z,101436.70
2018-11-04T22:53:09.191Z,101438.00
2018-11-04T22:55:38.334Z,101441.31
2018-11-04T22:58:08.583Z,101433.48
2018-11-04T23:00:43.463Z,101433.32
2018-11-04T23:03:12.507Z,101431.50
2018-11-04T23:05:43.135Z,101428.30
2018-11-04T23:08:11.959Z,101420.31
2018-11-04T23:10:41.962Z,101421.34
2018-11-04T23:13:10.862Z,101427.31
2018-11-04T23:15:39.842Z,101434.34
2018-11-04T23:18:08.762Z,101422.24
2018-11-04T23:20:37.735Z,101422.43
2018-11-04T23:23:06.853Z,101422.62
2018-11-04T23:25:35.844Z,101419.95
2018-11-04T23:28:05.567Z,101419.80
2018-11-04T23:33:21.595Z,101428.97
2018-11-04T23:35:51.786Z,101429.16
2018-11-04T23:38:21.520Z,101428.00
2018-11-04T23:40:50.512Z,101420.84
2018-11-04T23:43:20.421Z,101422.18
2018-11-04T23:45:49.506Z,101418.19
2018-11-04T23:48:19.007Z,101422.36
2018-11-04T23:50:48.671Z,101421.86
2018-11-04T23:53:17.590Z,101421.55
2018-11-04T23:55:46.479Z,101420.59
2018-11-04T23:58:15.471Z,101414.45
